Time;durP1;ratioP1;P1;durP2;ratioP2;P2;SDS_P1;SDS_P2;PMS_P1;PMS_P2;Temp;Humidity;BMP_temperature;BMP_pressure;BME280_temperature;BME280_humidity;BME280_pressure;Samples;Min_cycle;Max_cycle;Signal;HPM_P1;HPM_P2
2021/12/16 00:05:42;;;;;;;97.97;48.30;;;;;;;8.38;99.67;103375.03;5067865;28;20056;-61
2021/12/16 00:08:18;;;;;;;92.70;45.80;;;;;;;8.38;100.00;103375.03;5063335;28;20024;-61
2021/12/16 00:10:57;;;;;;;93.72;46.13;;;;;;;8.37;100.00;103370.69;5066685;28;20124;-61
2021/12/16 00:32:38;;;;;;;98.30;46.55;;;;;;;8.36;100.00;103376.91;5072411;28;20702;-61
2021/12/16 00:35:05;;;;;;;93.28;44.72;;;;;;;8.35;100.00;103381.38;5071433;28;20035;-60
2021/12/16 00:37:30;;;;;;;86.85;46.28;;;;;;;8.34;99.90;103378.81;5068200;28;20036;-61
2021/12/16 00:39:56;;;;;;;90.20;44.78;;;;;;;8.36;100.00;103380.41;5070261;28;20033;-61
2021/12/16 00:47:49;;;;;;;90.50;44.63;;;;;;;8.35;99.94;103381.38;5065859;28;20097;-60
2021/12/16 00:55:47;;;;;;;89.03;44.58;;;;;;;8.33;100.00;103377.06;5069083;28;20048;-61
2021/12/16 00:58:15;;;;;;;86.45;42.25;;;;;;;8.31;100.00;103371.03;5071099;28;20111;-61
2021/12/16 01:00:43;;;;;;;87.32;44.63;;;;;;;8.31;100.00;103371.88;5071886;28;20387;-61
2021/12/16 01:03:22;;;;;;;89.45;43.40;;;;;;;8.31;99.98;103366.59;5071266;28;20032;-60
2021/12/16 01:06:05;;;;;;;86.32;45.28;;;;;;;8.34;100.00;103378.81;5071438;28;20107;-61
2021/12/16 01:09:05;;;;;;;86.80;43.95;;;;;;;8.34;100.00;103374.38;5065300;28;20073;-60
2021/12/16 01:52:08;;;;;;;83.50;42.47;;;;;;;8.25;100.00;103422.56;5069846;28;20424;-61
2021/12/16 01:57:30;;;;;;;80.18;42.63;;;;;;;8.25;100.00;103416.41;5070132;28;20515;-60
2021/12/16 02:00:05;;;;;;;84.97;43.03;;;;;;;8.25;100.00;103425.19;5068295;28;20109;-60
2021/12/16 02:02:39;;;;;;;76.70;41.63;;;;;;;8.25;100.00;103425.19;5070458;28;20020;-61
2021/12/16 02:08:39;;;;;;;83.05;42.25;;;;;;;8.25;100.00;103434.94;5069145;28;20588;-60
2021/12/16 02:10:53;;;;;;;88.28;43.90;;;;;;;8.23;100.00;103437.69;5061277;28;20048;-61
2021/12/16 02:13:48;;;;;;;83.40;41.47;;;;;;;8.23;100.00;103424.44;5064595;28;20337;-61
2021/12/16 02:32:52;;;;;;;82.88;42.78;;;;;;;8.22;100.00;103429.84;5070651;28;20079;-61
2021/12/16 02:35:34;;;;;;;78.80;40.50;;;;;;;8.21;100.00;103438.72;5070109;28;20024;-61
2021/12/16 02:38:03;;;;;;;73.25;40.50;;;;;;;8.20;100.00;103444.97;5068546;28;20387;-61
2021/12/16 02:40:29;;;;;;;83.55;41.25;;;;;;;8.17;100.00;103443.34;5069840;28;20059;-61
2021/12/16 02:43:06;;;;;;;82.57;42.10;;;;;;;8.17;100.00;103445.16;5069320;28;20465;-61
2021/12/16 02:48:29;;;;;;;79.10;40.42;;;;;;;8.19;100.00;103449.41;5068392;28;20097;-61
2021/12/16 02:50:56;;;;;;;76.57;39.85;;;;;;;8.20;100.00;103450.25;5069172;28;20032;-61
2021/12/16 02:53:22;;;;;;;77.80;41.08;;;;;;;8.19;100.00;103454.69;5069466;28;20025;-61
2021/12/16 02:55:47;;;;;;;74.60;41.28;;;;;;;8.19;100.00;103446.75;5068715;28;20070;-61
2021/12/16 02:58:14;;;;;;;80.40;40.47;;;;;;;8.18;100.00;103441.56;5068760;28;20024;-60
2021/12/16 03:00:45;;;;;;;78.55;41.25;;;;;;;8.17;100.00;103443.34;5068808;28;20040;-61
2021/12/16 03:03:11;;;;;;;75.80;41.22;;;;;;;8.17;100.00;103440.69;5061764;28;20466;-61
2021/12/16 03:05:38;;;;;;;73.63;39.88;;;;;;;8.17;100.00;103437.19;5069321;28;20095;-61
2021/12/16 03:08:06;;;;;;;85.20;42.67;;;;;;;8.17;100.00;103442.50;5068106;28;20033;-60
2021/12/16 03:11:04;;;;;;;76.63;40.53;;;;;;;8.18;100.00;103444.19;5067454;28;20031;-60
2021/12/16 03:13:42;;;;;;;76.70;41.50;;;;;;;8.20;100.00;103448.47;5066120;28;20182;-60
2021/12/16 03:21:16;;;;;;;75.88;40.92;;;;;;;8.18;100.00;103445.06;5068837;28;20028;-60
2021/12/16 03:34:40;;;;;;;81.20;42.03;;;;;;;8.12;100.00;103440.13;5068882;28;20075;-61
2021/12/16 03:37:15;;;;;;;83.68;41.85;;;;;;;8.12;100.00;103444.56;5068719;28;20090;-61
2021/12/16 03:39:59;;;;;;;86.82;43.60;;;;;;;8.13;100.00;103438.34;5047679;28;20024;-61
2021/12/16 03:42:35;;;;;;;86.80;42.67;;;;;;;8.14;100.00;103453.28;5068415;28;20031;-60
2021/12/16 03:46:25;;;;;;;83.22;42.30;;;;;;;8.15;100.00;103457.63;5067548;28;20051;-61
2021/12/16 03:48:00;;;;;;;79.90;42.88;;;;;;;8.13;100.00;103446.28;5062263;28;20037;-60
2021/12/16 03:50:26;;;;;;;79.40;42.92;;;;;;;8.11;100.00;103454.31;5068211;28;20032;-60
2021/12/16 03:52:52;;;;;;;78.10;42.40;;;;;;;8.10;100.00;103465.84;5068461;28;20036;-61
2021/12/16 03:55:19;;;;;;;80.30;41.65;;;;;;;8.10;100.00;103472.91;5068359;28;20025;-61
2021/12/16 03:57:45;;;;;;;79.32;41.92;;;;;;;8.10;100.00;103471.13;5067493;28;20488;-60
2021/12/16 04:00:16;;;;;;;86.70;43.60;;;;;;;8.07;100.00;103471.28;5067589;28;20031;-61
2021/12/16 04:02:41;;;;;;;83.25;42.72;;;;;;;8.07;100.00;103465.97;5068395;28;20021;-61
2021/12/16 04:05:10;;;;;;;77.57;41.63;;;;;;;8.03;100.00;103465.31;5068315;28;20040;-61
2021/12/16 04:07:37;;;;;;;73.22;41.50;;;;;;;8.01;100.00;103463.69;5067732;28;20115;-61
2021/12/16 04:10:21;;;;;;;81.75;41.63;;;;;;;7.98;100.00;103475.31;5067276;28;20028;-61
2021/12/16 04:12:48;;;;;;;77.30;40.08;;;;;;;7.95;100.00;103464.91;5068033;28;20020;-61
2021/12/16 04:15:14;;;;;;;80.72;42.83;;;;;;;7.93;100.00;103464.16;5064893;28;20025;-61
2021/12/16 04:17:39;;;;;;;81.20;42.47;;;;;;;7.93;100.00;103471.25;5067266;28;20032;-60
2021/12/16 04:20:09;;;;;;;79.20;42.33;;;;;;;7.93;100.00;103480.03;5067414;28;20024;-60
2021/12/16 04:22:41;;;;;;;87.85;42.63;;;;;;;7.91;100.00;103473.13;5068118;28;20025;-60
2021/12/16 04:25:11;;;;;;;81.20;41.75;;;;;;;7.86;100.00;103460.16;5066843;28;20074;-61
2021/12/16 04:27:38;;;;;;;84.10;43.33;;;;;;;7.82;100.00;103458.66;5068932;28;20109;-61
2021/12/16 04:30:06;;;;;;;82.32;41.40;;;;;;;7.78;100.00;103460.59;5068050;28;20096;-60
2021/12/16 04:32:31;;;;;;;83.30;42.95;;;;;;;7.73;100.00;103461.78;5068126;28;20475;-61
2021/12/16 04:34:56;;;;;;;91.28;43.33;;;;;;;7.70;100.00;103457.53;5067789;28;20059;-61
2021/12/16 04:37:22;;;;;;;87.38;42.97;;;;;;;7.65;100.00;103456.09;5068540;28;20044;-61
2021/12/16 04:39:47;;;;;;;87.72;42.90;;;;;;;7.63;100.00;103453.53;5066690;28;20043;-60
2021/12/16 04:42:15;;;;;;;87.53;42.65;;;;;;;7.59;100.00;103465.25;5063878;28;20543;-60
2021/12/16 04:44:42;;;;;;;84.95;42.85;;;;;;;7.57;100.00;103459.19;5067830;28;20028;-61
2021/12/16 04:47:07;;;;;;;82.95;42.97;;;;;;;7.58;100.00;103460.88;5068171;28;20024;-61
2021/12/16 04:49:33;;;;;;;84.57;43.73;;;;;;;7.57;100.00;103455.69;5067306;28;20024;-61
2021/12/16 04:52:02;;;;;;;84.80;42.97;;;;;;;7.55;100.00;103463.72;5068349;28;20032;-61
2021/12/16 04:54:29;;;;;;;89.03;45.17;;;;;;;7.55;100.00;103461.06;5067456;28;20553;-61
2021/12/16 04:56:57;;;;;;;91.22;44.40;;;;;;;7.53;100.00;103470.03;5068045;28;20039;-60
2021/12/16 04:59:23;;;;;;;94.47;44.13;;;;;;;7.51;100.00;103472.72;5067169;28;20092;-61
2021/12/16 05:01:55;;;;;;;97.65;44.47;;;;;;;7.51;100.00;103469.22;5067792;28;20057;-60
2021/12/16 05:04:20;;;;;;;91.80;44.15;;;;;;;7.51;100.00;103471.88;5066660;28;20082;-60
2021/12/16 05:06:46;;;;;;;92.63;45.05;;;;;;;7.50;100.00;103467.53;5068149;28;20437;-61
2021/12/16 05:09:24;;;;;;;89.93;44.90;;;;;;;7.51;100.00;103471.88;5068207;28;20040;-61
2021/12/16 05:11:49;;;;;;;91.05;45.38;;;;;;;7.51;100.00;103470.09;5071755;28;20039;-61
2021/12/16 05:14:19;;;;;;;98.93;44.85;;;;;;;7.52;100.00;103474.47;5071286;28;20020;-61
2021/12/16 05:16:44;;;;;;;;;;;;;;;7.53;100.00;103468.25;5072581;28;20025;-60
2021/12/16 05:19:09;;;;;;;92.15;43.97;;;;;;;7.49;100.00;103474.59;5070566;28;19919;-61
2021/12/16 05:26:49;;;;;;;198.67;42.77;;;;;;;7.38;100.00;103479.66;5071550;28;20055;-61
2021/12/16 05:29:14;;;;;;;96.15;44.50;;;;;;;7.37;100.00;103493.81;5070354;28;20468;-61
2021/12/16 05:31:40;;;;;;;98.80;43.20;;;;;;;7.37;100.00;103489.38;5070851;28;20040;-61
2021/12/16 05:34:06;;;;;;;99.80;42.40;;;;;;;7.36;100.00;103484.16;5071478;28;20373;-61
2021/12/16 05:36:32;;;;;;;90.75;42.83;;;;;;;7.33;100.00;103487.00;5071233;28;20115;-61
2021/12/16 05:38:58;;;;;;;98.60;42.07;;;;;;;7.30;100.00;103484.53;5070458;28;20017;-61
2021/12/16 05:41:25;;;;;;;98.37;43.50;;;;;;;7.28;100.00;103494.31;5070310;28;20019;-60
2021/12/16 05:43:52;;;;;;;181.47;39.23;;;;;;;7.25;100.00;103495.34;5071097;28;20101;-61
2021/12/16 05:46:20;;;;;;;166.60;39.60;;;;;;;7.22;100.00;103506.06;5071143;28;20016;-60
2021/12/16 05:48:47;;;;;;;192.10;41.80;;;;;;;7.23;100.00;103496.34;5070010;28;20438;-61
2021/12/16 05:51:18;;;;;;;98.00;39.90;;;;;;;7.15;100.00;103491.47;5070957;28;20384;-61
2021/12/16 05:53:45;;;;;;;104.50;38.30;;;;;;;7.17;100.00;103507.25;5070703;28;20479;-61
2021/12/16 05:56:11;;;;;;;133.73;40.73;;;;;;;7.17;100.00;103504.59;5070532;28;20035;-61
2021/12/16 05:58:37;;;;;;;225.13;37.35;;;;;;;7.14;100.00;103506.47;5069709;28;20155;-60
2021/12/16 06:01:09;;;;;;;188.13;37.90;;;;;;;7.11;100.00;103530.44;5069697;28;20048;-61
2021/12/16 06:03:35;;;;;;;136.63;28.98;;;;;;;6.99;100.00;103531.09;5070535;28;20039;-61
2021/12/16 06:06:01;;;;;;;147.33;23.83;;;;;;;6.86;100.00;103532.66;5070726;28;20414;-61
2021/12/16 06:08:27;;;;;;;227.03;21.57;;;;;;;6.65;100.00;103521.44;5069515;28;20035;-61
2021/12/16 06:13:35;;;;;;;368.13;32.77;;;;;;;6.64;100.00;103518.84;5066322;28;20032;-61
2021/12/16 06:27:01;;;;;;;441.00;33.27;;;;;;;6.45;100.00;103529.53;5070308;28;20079;-61
2021/12/16 06:29:27;;;;;;;221.70;28.23;;;;;;;6.39;100.00;103530.69;5065374;28;20028;-61
2021/12/16 06:31:52;;;;;;;268.90;31.87;;;;;;;6.40;100.00;103535.03;5057018;28;20021;-61
2021/12/16 06:34:18;;;;;;;89.07;28.57;;;;;;;6.38;100.00;103541.31;5063221;28;20025;-60
2021/12/16 06:36:44;;;;;;;110.10;25.60;;;;;;;6.32;100.00;103550.38;5062938;28;20017;-60
2021/12/16 06:39:10;;;;;;;143.23;26.33;;;;;;;6.27;100.00;103539.19;5069407;28;20544;-61
2021/12/16 06:41:37;;;;;;;446.20;31.30;;;;;;;6.33;100.00;103540.69;5069865;28;20379;-60
2021/12/16 06:44:15;;;;;;;218.87;29.10;;;;;;;6.28;100.00;103546.19;5069688;28;20024;-61
2021/12/16 06:46:43;;;;;;;68.57;21.83;;;;;;;6.19;100.00;103538.75;5069697;28;20028;-61
2021/12/16 06:49:10;;;;;;;236.10;26.63;;;;;;;6.10;100.00;103518.09;5067999;28;20016;-61
2021/12/16 06:51:58;;;;;;;377.23;27.37;;;;;;;6.19;100.00;103541.38;5060106;28;20035;-61
2021/12/16 06:54:32;;;;;;;152.77;22.67;;;;;;;6.09;100.00;103548.91;5065068;28;20028;-60
2021/12/16 06:57:20;;;;;;;151.37;22.70;;;;;;;5.99;100.00;103549.41;5070183;28;20024;-60
2021/12/16 06:59:54;;;;;;;107.67;20.77;;;;;;;5.95;100.00;103550.47;5067798;28;20024;-61
2021/12/16 07:02:41;;;;;;;89.87;19.47;;;;;;;5.88;100.00;103549.91;5069292;28;20028;-60
2021/12/16 07:05:08;;;;;;;66.50;15.73;;;;;;;5.80;100.00;103563.47;5067439;28;20117;-61
2021/12/16 07:07:34;;;;;;;143.52;16.55;;;;;;;5.72;99.84;103562.09;5068936;28;20103;-60
2021/12/16 07:09:59;;;;;;;94.00;15.37;;;;;;;5.60;99.01;103560.88;5068941;28;20485;-61
2021/12/16 07:12:35;;;;;;;99.67;17.90;;;;;;;5.54;99.19;103566.44;5069730;28;20055;-61
2021/12/16 07:15:09;;;;;;;99.53;16.73;;;;;;;5.48;98.69;103561.44;5063258;28;20442;-61
2021/12/16 07:17:35;;;;;;;162.60;18.93;;;;;;;5.57;98.77;103572.44;5067732;28;20090;-60
2021/12/16 07:20:00;;;;;;;151.60;19.73;;;;;;;5.56;99.18;103570.72;5065230;28;20028;-61
2021/12/16 07:22:26;;;;;;;239.33;20.40;;;;;;;5.52;99.56;103574.44;5068197;28;20021;-61
2021/12/16 07:24:52;;;;;;;81.33;18.60;;;;;;;5.47;99.54;103591.34;5069260;28;20079;-61
2021/12/16 07:27:17;;;;;;;171.93;19.20;;;;;;;5.41;99.13;103599.53;5069580;28;20036;-60
2021/12/16 07:29:42;;;;;;;177.27;19.37;;;;;;;5.37;98.96;103590.94;5082910;28;20077;-60
2021/12/16 07:32:08;;;;;;;237.27;21.73;;;;;;;5.37;98.98;103596.19;5070199;28;20526;-60
2021/12/16 07:34:34;;;;;;;247.57;21.93;;;;;;;5.32;99.57;103598.19;5068601;28;20025;-60
2021/12/16 07:37:01;;;;;;;255.60;23.63;;;;;;;5.29;99.47;103607.09;5068226;28;20036;-61
2021/12/16 07:39:30;;;;;;;128.37;19.77;;;;;;;5.26;99.85;103609.84;5067373;28;20052;-61
2021/12/16 07:41:57;;;;;;;139.95;20.00;;;;;;;5.26;99.49;103612.50;5061996;28;20366;-60
2021/12/16 07:44:23;;;;;;;74.53;20.47;;;;;;;5.32;99.72;103618.41;5052377;28;20103;-60
2021/12/16 07:46:56;;;;;;;107.70;19.30;;;;;;;5.32;99.62;103623.69;5068076;28;20436;-61
2021/12/16 07:49:29;;;;;;;54.20;18.20;;;;;;;5.24;99.74;103632.78;5046048;28;20032;-60
2021/12/16 07:51:56;;;;;;;93.63;17.77;;;;;;;5.17;99.26;103647.13;5048534;28;20032;-60
2021/12/16 07:54:22;;;;;;;90.20;18.60;;;;;;;5.18;99.15;103655.88;5062136;28;20452;-60
2021/12/16 07:56:52;;;;;;;100.17;17.50;;;;;;;5.05;98.95;103654.72;5068628;28;20024;-60
2021/12/16 07:59:18;;;;;;;52.43;20.30;;;;;;;5.08;98.79;103658.06;5067483;28;20432;-60
2021/12/16 08:01:45;;;;;;;75.03;17.70;;;;;;;4.99;98.48;103658.47;5068817;28;20708;-61
2021/12/16 08:04:19;;;;;;;67.47;18.73;;;;;;;4.91;98.23;103650.00;5065063;28;20032;-61
2021/12/16 08:06:47;;;;;;;87.03;21.77;;;;;;;4.89;98.12;103657.13;5067911;28;20197;-61
2021/12/16 08:09:13;;;;;;;110.87;24.53;;;;;;;4.83;98.43;103660.88;5050160;28;20058;-61
2021/12/16 08:11:40;;;;;;;86.40;22.37;;;;;;;4.80;98.00;103663.63;5068346;28;20013;-60
2021/12/16 08:14:06;;;;;;;74.43;22.33;;;;;;;4.79;97.93;103663.69;5050171;28;20103;-60
2021/12/16 08:16:32;;;;;;;78.90;23.70;;;;;;;4.80;98.16;103675.94;5067833;28;20108;-61
2021/12/16 08:18:57;;;;;;;49.87;22.67;;;;;;;4.86;98.24;103671.28;5054099;28;20057;-61
2021/12/16 08:21:27;;;;;;;47.57;21.97;;;;;;;4.85;98.32;103684.50;5060717;28;20571;-61
2021/12/16 08:23:53;;;;;;;80.33;23.73;;;;;;;4.87;98.26;103674.75;5067304;28;20032;-61
2021/12/16 08:26:19;;;;;;;84.43;23.87;;;;;;;4.83;98.51;103688.97;5068301;28;20123;-61
2021/12/16 08:28:44;;;;;;;71.37;24.30;;;;;;;4.83;98.42;103689.84;5066061;28;20103;-61
2021/12/16 08:31:10;;;;;;;59.60;24.30;;;;;;;4.87;98.44;103690.56;5066902;28;20028;-60
2021/12/16 08:33:37;;;;;;;63.97;22.37;;;;;;;4.82;98.44;103680.22;5067426;28;20029;-60
2021/12/16 08:36:04;;;;;;;75.67;20.20;;;;;;;4.74;98.18;103698.13;5066578;28;20064;-61
2021/12/16 08:38:29;;;;;;;70.10;20.27;;;;;;;4.72;98.29;103707.00;5063974;28;20020;-60
2021/12/16 08:40:59;;;;;;;54.53;20.07;;;;;;;4.78;98.52;103701.47;5066070;28;20090;-61
2021/12/16 08:43:25;;;;;;;60.25;18.45;;;;;;;4.71;98.17;103703.50;5066502;28;20033;-60
2021/12/16 08:45:50;;;;;;;46.27;17.27;;;;;;;4.71;98.49;103710.56;5070498;28;21160;-61
2021/12/16 08:48:16;;;;;;;65.43;18.13;;;;;;;4.73;98.51;103709.56;5070020;28;20507;-61
2021/12/16 08:50:46;;;;;;;40.53;19.43;;;;;;;4.76;98.21;103708.59;5071277;28;20024;-60
2021/12/16 08:53:12;;;;;;;41.63;17.43;;;;;;;4.75;98.20;103714.78;5071270;28;20100;-61
2021/12/16 08:55:41;;;;;;;47.10;17.17;;;;;;;4.69;98.07;103710.63;5071777;28;20403;-61
2021/12/16 08:58:06;;;;;;;61.13;16.33;;;;;;;4.71;98.27;103727.19;5071012;28;20028;-60
2021/12/16 09:00:39;;;;;;;47.10;16.70;;;;;;;4.79;98.20;103722.47;5072284;28;20089;-61
2021/12/16 09:03:05;;;;;;;35.23;16.57;;;;;;;4.82;98.59;103716.22;5071416;28;20392;-60
2021/12/16 09:05:31;;;;;;;42.10;17.83;;;;;;;4.83;98.46;103720.56;5072229;28;20020;-60
2021/12/16 09:07:56;;;;;;;37.30;17.97;;;;;;;4.91;98.68;103739.53;5071176;28;20107;-61
2021/12/16 09:10:27;;;;;;;39.20;20.53;;;;;;;4.99;99.02;103724.31;5072137;28;20457;-61
2021/12/16 09:13:03;;;;;;;33.27;19.33;;;;;;;5.05;98.92;103724.03;5071159;28;20029;-61
2021/12/16 09:15:32;;;;;;;48.53;20.23;;;;;;;5.07;98.81;103738.00;5071980;28;20016;-61
2021/12/16 09:17:58;;;;;;;;;;;;;;;5.23;98.86;103736.47;5052340;28;20064;-60
2021/12/16 09:20:24;;;;;;;52.87;21.77;;;;;;;5.28;99.26;103733.63;5071942;28;19947;-61
2021/12/16 09:22:49;;;;;;;71.03;24.57;;;;;;;5.34;99.12;103724.59;5071570;28;20020;-61
2021/12/16 09:25:16;;;;;;;72.07;25.43;;;;;;;5.45;99.56;103744.28;5071642;28;20020;-61
2021/12/16 09:27:42;;;;;;;54.17;23.83;;;;;;;5.47;99.54;103734.53;5070948;28;20480;-60
2021/12/16 09:30:09;;;;;;;52.40;24.93;;;;;;;5.55;99.83;103731.59;5071232;28;20021;-61
2021/12/16 09:32:36;;;;;;;64.80;28.87;;;;;;;5.69;99.74;103742.38;5071593;28;20544;-61
2021/12/16 09:35:03;;;;;;;66.97;29.03;;;;;;;5.76;100.00;103740.31;5070879;28;20115;-61
2021/12/16 09:37:29;;;;;;;51.63;27.83;;;;;;;5.87;99.78;103732.78;5071647;28;20266;-61
2021/12/16 09:39:55;;;;;;;51.80;27.27;;;;;;;5.98;99.75;103750.78;5070043;28;20054;-61
2021/12/16 09:42:21;;;;;;;42.57;28.93;;;;;;;6.05;100.00;103747.81;5071653;28;20024;-61
2021/12/16 09:44:46;;;;;;;46.00;29.30;;;;;;;6.14;100.00;103736.00;5071070;28;20022;-61
2021/12/16 09:47:13;;;;;;;53.03;32.67;;;;;;;6.22;100.00;103734.69;5071193;28;20025;-60
2021/12/16 09:49:39;;;;;;;54.47;33.43;;;;;;;6.31;100.00;103743.97;5070446;28;20024;-60
2021/12/16 09:52:07;;;;;;;51.20;34.43;;;;;;;6.45;100.00;103738.06;5071314;28;20491;-61
2021/12/16 09:54:34;;;;;;;49.07;34.83;;;;;;;6.53;100.00;103731.47;5057591;28;20385;-61
2021/12/16 09:57:00;;;;;;;53.00;35.33;;;;;;;6.61;100.00;103733.75;5069596;28;20476;-61
2021/12/16 09:59:28;;;;;;;51.33;34.17;;;;;;;6.71;100.00;103742.94;5070330;28;20021;-61
2021/12/16 10:01:56;;;;;;;53.57;36.17;;;;;;;6.79;100.00;103751.34;5070820;28;20031;-61
2021/12/16 10:04:27;;;;;;;54.93;37.40;;;;;;;6.85;100.00;103747.53;5070886;28;20086;-60
2021/12/16 10:06:56;;;;;;;59.73;37.17;;;;;;;6.94;100.00;103748.88;5058029;28;20031;-60
2021/12/16 10:09:22;;;;;;;;;;;;;;;7.02;100.00;103747.59;5070415;28;20043;-61
2021/12/16 10:11:50;;;;;;;57.20;37.10;;;;;;;7.09;100.00;103732.28;5070839;28;19912;-61
2021/12/16 10:14:33;;;;;;;63.30;39.63;;;;;;;7.16;100.00;103731.03;5070535;28;20499;-61
2021/12/16 10:19:44;;;;;;;71.63;42.27;;;;;;;7.30;100.00;103725.91;5069741;28;20317;-61
2021/12/16 10:22:16;;;;;;;66.13;40.80;;;;;;;7.36;100.00;103733.53;5070083;28;20107;-61
2021/12/16 10:24:42;;;;;;;69.97;41.60;;;;;;;7.44;100.00;103728.69;5070654;28;20546;-61
2021/12/16 10:27:15;;;;;;;69.32;43.53;;;;;;;7.53;100.00;103734.47;5070127;28;20032;-60
2021/12/16 10:29:51;;;;;;;75.33;44.37;;;;;;;7.64;100.00;103738.25;5069919;28;20040;-60
2021/12/16 10:32:42;;;;;;;73.03;43.15;;;;;;;7.74;100.00;103735.94;5070312;28;20036;-61
2021/12/16 10:35:29;;;;;;;72.20;43.13;;;;;;;7.83;100.00;103735.50;5070305;28;20029;-61
2021/12/16 10:38:01;;;;;;;74.33;43.53;;;;;;;7.94;100.00;103740.19;5069273;28;20391;-61
2021/12/16 10:40:40;;;;;;;72.20;43.63;;;;;;;8.06;100.00;103734.22;5069953;28;20020;-61
2021/12/16 10:43:37;;;;;;;72.85;42.63;;;;;;;8.14;100.00;103739.13;5052780;28;20483;-61
2021/12/16 10:46:08;;;;;;;69.68;40.13;;;;;;;8.22;100.00;103737.75;5070137;28;20032;-61
2021/12/16 10:48:45;;;;;;;73.63;40.92;;;;;;;8.30;100.00;103750.56;5060974;28;20039;-61
2021/12/16 10:51:27;;;;;;;68.20;38.58;;;;;;;8.37;100.00;103747.53;5070008;28;20033;-61
2021/12/16 10:54:19;;;;;;;64.05;38.47;;;;;;;8.45;100.00;103755.06;5069225;28;20442;-60
2021/12/16 10:56:47;;;;;;;61.28;36.75;;;;;;;8.53;100.00;103750.19;5062015;28;20029;-61
2021/12/16 10:59:35;;;;;;;62.03;35.60;;;;;;;8.63;100.00;103763.75;5058861;28;20436;-61
2021/12/16 11:02:27;;;;;;;61.43;34.67;;;;;;;8.74;100.00;103758.72;5052846;28;20032;-61
2021/12/16 11:05:00;;;;;;;61.50;34.70;;;;;;;8.84;100.00;103765.22;5064826;28;20650;-61
2021/12/16 11:07:38;;;;;;;55.72;34.00;;;;;;;8.95;100.00;103764.56;5063651;28;20451;-61
2021/12/16 11:10:25;;;;;;;56.10;31.85;;;;;;;9.05;100.00;103768.44;5068166;28;20476;-60
2021/12/16 11:12:55;;;;;;;54.45;32.20;;;;;;;9.16;100.00;103773.09;5061775;28;20435;-61
2021/12/16 11:15:35;;;;;;;56.50;32.33;;;;;;;9.26;100.00;103764.53;5068210;28;20036;-61
2021/12/16 11:18:02;;;;;;;46.97;29.80;;;;;;;9.33;100.00;103765.03;5065213;28;20024;-61
2021/12/16 11:20:46;;;;;;;46.85;26.35;;;;;;;9.39;100.00;103767.31;5058961;28;20021;-61
2021/12/16 11:23:17;;;;;;;41.55;25.92;;;;;;;9.46;100.00;103767.78;5060911;28;20021;-61
2021/12/16 11:25:52;;;;;;;45.95;26.38;;;;;;;9.51;100.00;103763.06;5056800;28;20032;-61
2021/12/16 11:28:31;;;;;;;44.35;25.42;;;;;;;9.58;99.37;103773.22;5067908;28;20078;-60
2021/12/16 11:31:10;;;;;;;46.35;25.45;;;;;;;9.61;99.37;103765.06;5069386;28;20024;-60
2021/12/16 11:33:46;;;;;;;42.10;24.10;;;;;;;9.65;99.02;103759.59;5078410;28;20028;-61
2021/12/16 11:36:15;;;;;;;38.88;24.30;;;;;;;9.71;98.68;103765.38;5068320;28;20395;-61
2021/12/16 11:39:00;;;;;;;44.33;25.30;;;;;;;9.77;98.63;103756.16;5068061;28;20021;-60
2021/12/16 11:41:35;;;;;;;40.63;24.55;;;;;;;9.83;98.70;103761.09;5066234;28;20035;-62
2021/12/16 11:44:16;;;;;;;40.67;24.85;;;;;;;9.90;98.47;103760.66;5063998;28;20052;-61
2021/12/16 11:46:50;;;;;;;38.80;23.98;;;;;;;9.99;97.93;103759.22;5069105;28;20577;-61
2021/12/16 11:49:33;;;;;;;47.92;24.30;;;;;;;10.07;98.14;103756.06;5067451;28;20139;-61
2021/12/16 11:52:24;;;;;;;39.90;23.75;;;;;;;10.13;97.58;103753.91;5055276;28;20468;-61
2021/12/16 11:55:07;;;;;;;39.47;24.27;;;;;;;10.23;97.27;103744.44;5067315;28;20492;-61
2021/12/16 11:57:37;;;;;;;38.85;23.52;;;;;;;10.34;96.99;103741.09;5067667;28;20530;-60
2021/12/16 12:00:07;;;;;;;40.65;23.85;;;;;;;10.47;96.98;103743.84;5067486;28;20166;-61
2021/12/16 12:03:03;;;;;;;38.10;23.38;;;;;;;10.61;96.82;103732.31;5071987;28;20027;-61
2021/12/16 12:05:34;;;;;;;34.42;22.88;;;;;;;10.73;96.48;103740.34;5054313;28;20028;-61
2021/12/16 12:08:07;;;;;;;31.77;22.65;;;;;;;10.87;96.23;103731.44;5066251;28;20027;-61
2021/12/16 12:10:35;;;;;;;37.53;23.38;;;;;;;10.95;95.62;103739.75;5067368;28;20024;-61
2021/12/16 12:13:06;;;;;;;35.65;22.40;;;;;;;11.07;95.45;103736.28;5066247;28;20024;-61
2021/12/16 12:15:33;;;;;;;35.05;22.38;;;;;;;11.22;94.73;103742.38;5068452;28;20024;-61
2021/12/16 12:17:59;;;;;;;33.47;21.77;;;;;;;11.32;94.25;103732.84;5059868;28;20016;-60
2021/12/16 12:20:30;;;;;;;32.17;18.80;;;;;;;11.33;93.52;103734.53;5074776;28;20625;-61
2021/12/16 12:22:56;;;;;;;26.40;17.17;;;;;;;11.40;93.33;103727.84;5073936;28;20025;-61
2021/12/16 12:25:22;;;;;;;29.40;16.10;;;;;;;11.51;92.80;103726.22;5074521;28;20316;-61
2021/12/16 12:27:47;;;;;;;26.20;16.65;;;;;;;11.52;91.86;103727.94;5074091;28;20099;-61
2021/12/16 12:30:14;;;;;;;27.75;16.42;;;;;;;11.54;91.51;103726.00;5075117;28;20027;-61
2021/12/16 12:32:43;;;;;;;28.13;17.42;;;;;;;11.71;91.06;103726.56;5075409;28;20032;-61
2021/12/16 12:35:19;;;;;;;25.10;15.93;;;;;;;11.81;90.51;103726.78;5074700;28;20028;-61
2021/12/16 12:37:49;;;;;;;26.55;15.93;;;;;;;11.88;90.39;103728.09;5074396;28;20067;-61
2021/12/16 12:40:29;;;;;;;23.38;14.40;;;;;;;11.99;89.20;103730.81;5074904;28;20033;-61
2021/12/16 12:42:56;;;;;;;24.85;14.88;;;;;;;12.02;89.00;103727.94;5074417;28;20442;-61
2021/12/16 12:45:26;;;;;;;27.05;14.70;;;;;;;12.04;88.47;103727.81;5075562;28;20032;-61
2021/12/16 12:47:54;;;;;;;23.23;14.27;;;;;;;12.07;88.17;103725.78;5073892;28;20081;-61
2021/12/16 12:50:29;;;;;;;23.63;14.25;;;;;;;12.21;87.66;103731.97;5075157;28;20031;-61
2021/12/16 12:52:59;;;;;;;22.77;14.23;;;;;;;12.37;87.88;103736.06;5074736;28;20016;-60
2021/12/16 12:55:30;;;;;;;24.35;14.15;;;;;;;12.48;87.18;103745.09;5074980;28;20024;-61
2021/12/16 12:58:23;;;;;;;23.23;13.18;;;;;;;12.66;86.56;103743.72;5061778;28;20053;-61
2021/12/16 13:00:53;;;;;;;23.45;13.45;;;;;;;12.69;86.21;103741.69;5062719;28;20106;-61
2021/12/16 13:03:34;;;;;;;21.45;13.38;;;;;;;12.90;85.94;103730.41;5075163;28;20046;-61
2021/12/16 13:06:03;;;;;;;26.15;13.57;;;;;;;13.00;85.66;103728.72;5075015;28;20028;-61
2021/12/16 13:08:49;;;;;;;23.77;13.27;;;;;;;13.18;84.95;103729.19;5061391;28;20487;-61
2021/12/16 13:11:33;;;;;;;24.65;13.23;;;;;;;13.26;84.58;103727.63;5074148;28;20476;-60
2021/12/16 13:14:08;;;;;;;21.10;12.63;;;;;;;13.29;84.02;103722.06;5075451;28;20028;-61
2021/12/16 13:28:42;;;;;;;21.42;11.50;;;;;;;13.54;80.62;103722.84;5067172;28;20047;-61
2021/12/16 13:31:34;;;;;;;22.02;10.60;;;;;;;13.68;79.55;103737.78;5061848;28;20044;-60
2021/12/16 13:34:01;;;;;;;18.48;10.70;;;;;;;13.62;79.66;103733.78;5071791;28;20102;-60
2021/12/16 13:36:49;;;;;;;16.58;10.40;;;;;;;13.75;78.96;103725.66;5058827;28;20040;-61
2021/12/16 13:39:25;;;;;;;18.15;9.52;;;;;;;13.82;78.83;103735.72;5060466;28;20033;-61
2021/12/16 13:42:07;;;;;;;16.70;9.65;;;;;;;13.90;78.11;103733.31;5071407;28;20012;-61
2021/12/16 13:44:43;;;;;;;18.30;9.13;;;;;;;13.90;78.34;103733.31;5070973;28;20093;-61
2021/12/16 13:47:21;;;;;;;19.10;9.88;;;;;;;14.00;77.86;103729.91;5071786;28;20036;-61
2021/12/16 13:58:50;;;;;;;17.90;8.77;;;;;;;14.45;75.40;103731.56;5014243;28;20118;-62
2021/12/16 14:01:32;;;;;;;12.05;7.78;;;;;;;14.49;73.99;103745.56;5070644;28;20360;-61
2021/12/16 14:04:25;;;;;;;14.85;8.20;;;;;;;14.24;73.61;103741.31;5071322;28;20032;-61
2021/12/16 14:07:00;;;;;;;17.58;7.95;;;;;;;14.37;74.41;103743.81;5071463;28;20020;-61
2021/12/16 14:09:31;;;;;;;17.13;8.82;;;;;;;14.61;74.50;103736.50;5069634;28;20567;-61